createdAt,value
2023-01-29T00:00:41.233Z,27.56
2023-01-29T00:01:43.196Z,25.75
2023-01-29T00:02:45.172Z,25.90
2023-01-29T00:03:47.028Z,24.47
2023-01-29T00:04:48.816Z,22.29
2023-01-29T00:05:50.658Z,25.18
2023-01-29T00:06:52.771Z,25.17
2023-01-29T00:07:54.582Z,22.73
2023-01-29T00:08:56.368Z,23.77
2023-01-29T00:09:58.181Z,23.87
2023-01-29T00:11:00.040Z,25.19
2023-01-29T00:12:01.834Z,24.89
2023-01-29T00:13:03.643Z,24.27
2023-01-29T00:14:05.447Z,24.50
2023-01-29T00:15:07.265Z,25.40
2023-01-29T00:16:09.806Z,22.91
2023-01-29T00:17:11.697Z,21.61
2023-01-29T00:18:13.475Z,25.59
2023-01-29T00:19:15.270Z,21.09
2023-01-29T00:20:17.475Z,23.59
2023-01-29T00:21:22.572Z,22.69
2023-01-29T00:22:24.430Z,24.70
2023-01-29T00:23:26.228Z,23.83
2023-01-29T00:24:28.110Z,25.49
2023-01-29T00:25:29.939Z,25.40
2023-01-29T00:26:31.790Z,24.35
2023-01-29T00:27:33.604Z,23.34
2023-01-29T00:28:35.405Z,26.92
2023-01-29T00:29:37.220Z,23.45
2023-01-29T00:30:39.025Z,24.47
2023-01-29T00:31:40.979Z,23.07
2023-01-29T00:32:42.886Z,23.81
2023-01-29T00:33:44.673Z,23.37
2023-01-29T00:34:46.520Z,23.01
2023-01-29T00:35:48.343Z,24.08
2023-01-29T00:36:50.167Z,22.29
2023-01-29T00:37:51.970Z,19.43
2023-01-29T00:38:53.779Z,24.12
2023-01-29T00:39:55.576Z,25.53
2023-01-29T00:40:57.383Z,24.09
2023-01-29T00:41:59.231Z,23.28
2023-01-29T00:43:01.027Z,22.63
2023-01-29T00:44:02.845Z,27.39
2023-01-29T00:45:04.640Z,22.99
2023-01-29T00:46:06.855Z,27.08
2023-01-29T00:47:08.721Z,22.73
2023-01-29T00:48:10.608Z,24.19
2023-01-29T00:49:12.407Z,25.06
2023-01-29T00:50:14.556Z,26.49
2023-01-29T00:51:16.387Z,25.02
2023-01-29T00:52:18.265Z,23.32
2023-01-29T00:53:20.059Z,24.09
2023-01-29T00:54:21.879Z,23.00
2023-01-29T00:55:23.675Z,23.47
2023-01-29T00:56:25.612Z,23.34
2023-01-29T00:57:27.462Z,22.92
2023-01-29T00:58:29.287Z,23.92
2023-01-29T00:59:31.078Z,25.79
2023-01-29T01:00:32.897Z,22.71
2023-01-29T01:01:34.672Z,22.93
2023-01-29T01:02:36.534Z,23.98
2023-01-29T01:03:38.610Z,23.17
2023-01-29T01:04:40.487Z,21.69
2023-01-29T01:05:42.276Z,26.53
2023-01-29T01:06:44.072Z,25.85
2023-01-29T01:07:45.932Z,23.87
2023-01-29T01:08:47.719Z,21.99
2023-01-29T01:09:49.616Z,25.05
2023-01-29T01:10:51.383Z,24.40
2023-01-29T01:11:53.188Z,24.04
2023-01-29T01:12:55.064Z,24.51
2023-01-29T01:13:56.885Z,22.66
2023-01-29T01:14:58.684Z,23.91
2023-01-29T01:16:00.526Z,25.03
2023-01-29T01:17:02.391Z,25.39
2023-01-29T01:18:04.231Z,25.39
2023-01-29T01:19:06.076Z,26.83
2023-01-29T01:20:07.953Z,21.99
2023-01-29T01:21:09.760Z,25.62
2023-01-29T01:22:11.560Z,26.98
2023-01-29T01:23:13.403Z,26.50
2023-01-29T01:24:15.255Z,24.33
2023-01-29T01:25:17.106Z,27.21
2023-01-29T01:26:19.004Z,28.84
2023-01-29T01:27:20.812Z,25.37
2023-01-29T01:28:22.632Z,27.22
2023-01-29T01:29:24.444Z,28.86
2023-01-29T01:30:26.368Z,26.44
2023-01-29T01:31:28.255Z,29.55
2023-01-29T01:32:30.075Z,28.78
2023-01-29T01:33:33.655Z,29.81
2023-01-29T01:34:35.660Z,29.53
2023-01-29T01:35:37.431Z,28.74
2023-01-29T01:36:39.637Z,28.75
2023-01-29T01:37:41.450Z,31.96
2023-01-29T01:38:43.291Z,29.91
2023-01-29T01:39:45.079Z,28.51
2023-01-29T01:40:47.111Z,28.72
2023-01-29T01:41:48.982Z,26.89
2023-01-29T01:42:50.772Z,26.45
2023-01-29T01:43:52.625Z,28.92
2023-01-29T01:44:54.489Z,27.26
2023-01-29T01:45:56.393Z,29.32
2023-01-29T01:46:58.709Z,28.02
2023-01-29T01:48:00.498Z,27.41
2023-01-29T01:49:02.344Z,27.27
2023-01-29T01:50:04.304Z,24.88
2023-01-29T01:51:06.145Z,25.89
2023-01-29T01:52:07.930Z,24.49
2023-01-29T01:53:09.733Z,28.38
2023-01-29T01:54:11.582Z,27.47
2023-01-29T01:55:13.427Z,25.46
2023-01-29T01:56:15.243Z,24.91
2023-01-29T01:57:17.060Z,32.84
2023-01-29T01:58:18.843Z,27.46
2023-01-29T01:59:20.688Z,25.09
2023-01-29T02:00:22.486Z,29.08
2023-01-29T02:01:25.806Z,25.09
2023-01-29T02:02:27.756Z,26.93
2023-01-29T02:03:29.560Z,24.68
2023-01-29T02:04:31.392Z,27.02
2023-01-29T02:05:33.525Z,27.39
2023-01-29T02:06:35.840Z,25.59
2023-01-29T02:07:37.649Z,26.87
2023-01-29T02:08:39.462Z,26.89
2023-01-29T02:09:41.303Z,28.03
2023-01-29T02:10:43.192Z,25.05
2023-01-29T02:11:44.995Z,26.93
2023-01-29T02:12:46.793Z,26.05
2023-01-29T02:13:48.595Z,26.03
2023-01-29T02:14:50.433Z,26.71
2023-01-29T02:15:52.228Z,27.13
2023-01-29T02:16:54.344Z,27.63
2023-01-29T02:17:56.134Z,26.51
2023-01-29T02:18:57.939Z,26.00
2023-01-29T02:19:59.787Z,24.56
2023-01-29T02:21:01.627Z,23.73
2023-01-29T02:22:03.434Z,27.51
2023-01-29T02:23:05.230Z,24.74
2023-01-29T02:24:07.146Z,25.29
2023-01-29T02:25:08.999Z,26.75
2023-01-29T02:26:11.209Z,25.23
2023-01-29T02:27:13.019Z,26.99
2023-01-29T02:28:15.402Z,26.63
2023-01-29T02:29:17.256Z,26.73
2023-01-29T02:30:21.625Z,26.63
2023-01-29T02:31:23.555Z,26.35
2023-01-29T02:32:25.368Z,24.47
2023-01-29T02:33:27.479Z,26.81
2023-01-29T02:34:29.276Z,25.46
2023-01-29T02:35:31.128Z,27.29
2023-01-29T02:36:33.080Z,25.74
2023-01-29T02:37:34.881Z,24.93
2023-01-29T02:38:36.671Z,23.67
2023-01-29T02:39:38.494Z,30.46
2023-01-29T02:40:40.359Z,27.74
2023-01-29T02:41:42.934Z,27.07
2023-01-29T02:42:44.771Z,26.37
2023-01-29T02:43:46.558Z,27.70
2023-01-29T02:44:48.365Z,27.46
2023-01-29T02:45:50.268Z,28.11
2023-01-29T02:46:52.116Z,27.58
2023-01-29T02:47:53.913Z,28.59
2023-01-29T02:48:55.734Z,27.31
2023-01-29T02:49:57.512Z,29.99
2023-01-29T02:50:59.601Z,30.38
2023-01-29T02:52:01.436Z,32.01
2023-01-29T02:53:03.278Z,29.83
2023-01-29T02:54:05.690Z,29.72
2023-01-29T02:55:07.480Z,29.81
2023-01-29T02:56:10.169Z,28.15
2023-01-29T02:57:11.978Z,25.91
2023-01-29T02:58:13.767Z,26.17
2023-01-29T02:59:15.574Z,27.81
2023-01-29T03:00:17.698Z,26.75
2023-01-29T03:01:19.925Z,29.60
2023-01-29T03:02:21.763Z,28.15
2023-01-29T03:03:23.528Z,29.57
2023-01-29T03:04:25.345Z,29.22
2023-01-29T03:05:27.135Z,28.02
2023-01-29T03:06:28.988Z,30.15
2023-01-29T03:07:31.006Z,31.47
2023-01-29T03:08:32.806Z,29.97
2023-01-29T03:09:34.607Z,29.97
2023-01-29T03:10:36.524Z,27.86
2023-01-29T03:11:38.351Z,31.13
2023-01-29T03:12:40.161Z,27.23
2023-01-29T03:13:41.970Z,29.70
2023-01-29T03:14:43.781Z,27.63
2023-01-29T03:15:45.608Z,26.21
2023-01-29T03:16:47.494Z,25.76
2023-01-29T03:17:49.356Z,30.28
2023-01-29T03:18:51.146Z,27.19
2023-01-29T03:19:52.942Z,28.94
2023-01-29T03:20:54.851Z,24.28
2023-01-29T03:21:56.692Z,27.39
2023-01-29T03:22:58.574Z,27.69
2023-01-29T03:24:00.402Z,24.32
2023-01-29T03:25:02.199Z,23.29
2023-01-29T03:26:03.967Z,23.51
2023-01-29T03:27:05.801Z,24.96
2023-01-29T03:28:07.607Z,27.23
2023-01-29T03:29:09.415Z,25.98
2023-01-29T03:30:11.527Z,24.64
2023-01-29T03:31:13.440Z,24.68
2023-01-29T03:32:15.879Z,24.57
2023-01-29T03:33:17.690Z,29.79
2023-01-29T03:34:20.082Z,29.08
2023-01-29T03:35:21.903Z,32.32
2023-01-29T03:36:23.720Z,30.59
2023-01-29T03:37:25.587Z,30.30
2023-01-29T03:38:27.422Z,31.89
2023-01-29T03:39:29.241Z,29.00
2023-01-29T03:40:31.139Z,29.65
2023-01-29T03:41:32.956Z,25.81
2023-01-29T03:42:34.796Z,28.31
2023-01-29T03:43:36.595Z,26.41
2023-01-29T03:44:38.500Z,25.15
2023-01-29T03:45:40.359Z,23.53
2023-01-29T03:46:42.210Z,23.30
2023-01-29T03:47:44.051Z,23.41
2023-01-29T03:48:45.853Z,23.06
2023-01-29T03:49:47.652Z,22.54
2023-01-29T03:50:50.683Z,23.45
2023-01-29T03:51:52.494Z,22.29
2023-01-29T03:52:54.333Z,22.29
2023-01-29T03:53:56.206Z,21.92
2023-01-29T03:54:57.992Z,22.66
2023-01-29T03:55:59.796Z,21.85
2023-01-29T03:57:01.594Z,23.40
2023-01-29T03:58:03.442Z,21.89
2023-01-29T03:59:05.262Z,22.39
2023-01-29T04:00:07.671Z,24.09
2023-01-29T04:01:09.499Z,20.89
2023-01-29T04:02:11.281Z,22.69
2023-01-29T04:03:13.164Z,22.60
2023-01-29T04:04:15.547Z,24.64
2023-01-29T04:05:17.458Z,22.51
2023-01-29T04:06:19.332Z,25.45
2023-01-29T04:07:21.134Z,27.81
2023-01-29T04:08:22.990Z,27.17
2023-01-29T04:09:24.796Z,27.65
2023-01-29T04:10:26.801Z,31.23
2023-01-29T04:11:28.679Z,32.77
2023-01-29T04:12:30.464Z,30.37
2023-01-29T04:13:32.309Z,30.65
2023-01-29T04:14:34.132Z,31.10
2023-01-29T04:15:35.944Z,25.99
2023-01-29T04:16:37.811Z,28.07
2023-01-29T04:17:39.682Z,26.45
2023-01-29T04:18:41.527Z,26.33
2023-01-29T04:19:43.325Z,25.76
2023-01-29T04:20:45.224Z,27.73
2023-01-29T04:21:47.018Z,29.59
2023-01-29T04:22:48.823Z,24.79
2023-01-29T04:23:50.667Z,25.77
2023-01-29T04:24:52.492Z,25.16
2023-01-29T04:25:54.296Z,24.99
2023-01-29T04:26:56.096Z,25.61
2023-01-29T04:27:57.913Z,25.77
2023-01-29T04:28:59.783Z,27.94
2023-01-29T04:30:01.624Z,28.74
2023-01-29T04:31:03.479Z,32.24
2023-01-29T04:32:05.297Z,34.31
2023-01-29T04:33:07.108Z,32.51
2023-01-29T04:34:08.952Z,37.73
2023-01-29T04:35:10.738Z,34.74
2023-01-29T04:36:12.737Z,30.31
2023-01-29T04:37:14.540Z,31.81
2023-01-29T04:38:16.343Z,33.69
2023-01-29T04:39:18.188Z,29.90
2023-01-29T04:40:20.032Z,32.79
2023-01-29T04:41:21.834Z,33.14
2023-01-29T04:42:23.638Z,30.38
2023-01-29T04:43:25.434Z,27.88
2023-01-29T04:44:27.263Z,26.95
2023-01-29T04:45:29.057Z,28.51
2023-01-29T04:46:30.863Z,27.92
2023-01-29T04:47:32.746Z,23.12
2023-01-29T04:48:34.567Z,24.47
2023-01-29T04:49:36.393Z,24.18
2023-01-29T04:50:38.314Z,23.74
2023-01-29T04:51:40.108Z,24.26
2023-01-29T04:52:41.899Z,24.86
2023-01-29T04:53:43.716Z,25.92
2023-01-29T04:54:45.547Z,25.70
2023-01-29T04:55:47.388Z,25.92
2023-01-29T04:56:49.173Z,21.56
2023-01-29T04:57:50.970Z,28.25
2023-01-29T04:58:52.793Z,23.70
2023-01-29T04:59:54.651Z,25.74
2023-01-29T05:00:56.482Z,23.45
2023-01-29T05:01:58.358Z,23.50
2023-01-29T05:03:00.185Z,24.89
2023-01-29T05:04:01.985Z,26.05
2023-01-29T05:05:03.824Z,26.94
2023-01-29T05:06:05.920Z,25.61
2023-01-29T05:07:07.719Z,26.59
2023-01-29T05:08:09.520Z,24.42
2023-01-29T05:09:11.322Z,25.96
2023-01-29T05:10:14.185Z,29.55
2023-01-29T05:11:16.367Z,25.61
2023-01-29T05:12:18.171Z,27.84
2023-01-29T05:13:19.948Z,26.56
2023-01-29T05:14:21.752Z,27.70
2023-01-29T05:15:23.600Z,27.85
2023-01-29T05:16:25.750Z,22.88
2023-01-29T05:17:27.501Z,25.73
2023-01-29T05:18:29.335Z,28.65
2023-01-29T05:19:31.145Z,30.68
2023-01-29T05:20:33.115Z,28.09
2023-01-29T05:21:34.894Z,26.91
2023-01-29T05:22:36.692Z,32.53
2023-01-29T05:23:38.502Z,26.27
2023-01-29T05:24:40.345Z,27.14
2023-01-29T05:25:42.148Z,28.54
2023-01-29T05:26:44.306Z,32.77
2023-01-29T05:27:46.110Z,32.89
2023-01-29T05:28:47.905Z,33.90
2023-01-29T05:29:49.733Z,32.89
2023-01-29T05:30:51.633Z,34.76
2023-01-29T05:31:53.398Z,46.47
2023-01-29T05:32:55.177Z,42.55
2023-01-29T05:33:56.972Z,33.61
2023-01-29T05:34:58.770Z,29.89
2023-01-29T05:36:00.637Z,23.34
2023-01-29T05:37:02.447Z,22.84
2023-01-29T05:38:04.242Z,25.37
2023-01-29T05:39:06.049Z,22.69
2023-01-29T05:40:08.154Z,22.41
2023-01-29T05:41:10.003Z,20.56
2023-01-29T05:42:11.851Z,23.54
2023-01-29T05:43:13.649Z,37.92
2023-01-29T05:44:15.459Z,29.75
2023-01-29T05:45:17.252Z,27.67
2023-01-29T05:46:19.154Z,28.20
2023-01-29T05:47:20.972Z,28.29
2023-01-29T05:48:22.779Z,27.00
2023-01-29T05:49:24.877Z,25.87
2023-01-29T05:50:26.681Z,27.33
2023-01-29T05:51:28.515Z,24.64
2023-01-29T05:52:30.320Z,28.22
2023-01-29T05:53:32.149Z,28.02
2023-01-29T05:54:33.916Z,26.09
2023-01-29T05:55:35.737Z,26.17
2023-01-29T05:56:37.773Z,26.06
2023-01-29T05:57:39.802Z,24.59
2023-01-29T05:58:41.596Z,25.77
2023-01-29T05:59:43.399Z,22.02
2023-01-29T06:00:45.308Z,24.25
2023-01-29T06:01:47.175Z,22.26
2023-01-29T06:02:48.990Z,23.11
2023-01-29T06:03:50.752Z,26.29
2023-01-29T06:04:52.567Z,26.25
2023-01-29T06:05:54.363Z,27.01
2023-01-29T06:06:56.215Z,26.36
2023-01-29T06:07:58.014Z,24.07
2023-01-29T06:08:59.809Z,26.59
2023-01-29T06:10:01.637Z,25.36
2023-01-29T06:11:03.530Z,27.46
2023-01-29T06:12:05.387Z,28.65
2023-01-29T06:13:07.308Z,28.37
2023-01-29T06:14:09.095Z,30.03
2023-01-29T06:15:10.888Z,33.25
2023-01-29T06:16:13.079Z,35.24
2023-01-29T06:17:16.481Z,35.53
2023-01-29T06:18:18.296Z,39.13
2023-01-29T06:19:20.102Z,41.02
2023-01-29T06:20:21.890Z,38.42
2023-01-29T06:21:23.690Z,38.51
2023-01-29T06:22:25.537Z,39.50
2023-01-29T06:23:27.342Z,39.85
2023-01-29T06:24:29.211Z,39.44
2023-01-29T06:25:31.033Z,34.97
2023-01-29T06:26:33.147Z,34.28
2023-01-29T06:27:35.006Z,35.16
2023-01-29T06:28:37.157Z,36.36
2023-01-29T06:29:38.964Z,37.92
2023-01-29T06:30:40.804Z,38.92
2023-01-29T06:31:42.641Z,40.73
2023-01-29T06:32:44.525Z,37.06
2023-01-29T06:33:46.336Z,39.80
2023-01-29T06:34:49.734Z,42.70
2023-01-29T06:35:51.657Z,42.01
2023-01-29T06:36:53.547Z,40.89
2023-01-29T06:37:55.398Z,37.65
2023-01-29T06:38:57.206Z,42.43
2023-01-29T06:39:59.010Z,42.85
2023-01-29T06:41:00.904Z,37.43
2023-01-29T06:42:02.808Z,37.40
2023-01-29T06:43:04.668Z,36.63
2023-01-29T06:44:06.508Z,37.11
2023-01-29T06:45:08.928Z,37.51
2023-01-29T06:46:11.127Z,38.85
2023-01-29T06:47:12.929Z,39.13
2023-01-29T06:48:14.793Z,38.39
2023-01-29T06:49:16.613Z,35.34
2023-01-29T06:50:18.816Z,39.82
2023-01-29T06:51:20.711Z,41.62
2023-01-29T06:52:22.504Z,44.59
2023-01-29T06:53:24.356Z,46.51
2023-01-29T06:54:26.142Z,45.33
2023-01-29T06:55:27.954Z,49.37
2023-01-29T06:56:29.764Z,48.02
2023-01-29T06:57:32.600Z,49.61
2023-01-29T06:58:34.483Z,46.16
2023-01-29T06:59:36.320Z,42.19
2023-01-29T07:00:38.164Z,39.47
2023-01-29T07:01:39.976Z,40.25
2023-01-29T07:02:41.740Z,37.79
2023-01-29T07:03:43.607Z,42.37
2023-01-29T07:04:45.406Z,35.21
2023-01-29T07:05:47.217Z,35.34
2023-01-29T07:06:49.124Z,28.62
2023-01-29T07:07:50.930Z,32.74
2023-01-29T07:08:52.778Z,34.89
2023-01-29T07:09:54.588Z,33.51
2023-01-29T07:10:56.392Z,33.95
2023-01-29T07:11:58.197Z,38.40
2023-01-29T07:13:00.124Z,35.72
2023-01-29T07:14:02.048Z,32.47
2023-01-29T07:15:03.862Z,49.51
2023-01-29T07:16:06.163Z,48.05
2023-01-29T07:17:07.976Z,45.04
2023-01-29T07:18:09.787Z,44.60
2023-01-29T07:19:11.629Z,41.16
2023-01-29T07:20:13.857Z,35.45
2023-01-29T07:21:15.715Z,33.35
2023-01-29T07:22:17.529Z,58.55
2023-01-29T07:23:19.310Z,67.09
2023-01-29T07:24:21.188Z,72.09
2023-01-29T07:25:22.994Z,76.11
2023-01-29T07:26:24.792Z,54.39
2023-01-29T07:27:26.618Z,52.81
2023-01-29T07:28:28.457Z,104.48
2023-01-29T07:29:30.295Z,49.46
2023-01-29T07:30:32.214Z,39.01
2023-01-29T07:31:34.186Z,42.41
2023-01-29T07:32:36.128Z,40.26
2023-01-29T07:33:37.915Z,44.09
2023-01-29T07:34:39.813Z,40.63
2023-01-29T07:35:42.096Z,40.88
2023-01-29T07:36:44.230Z,46.77
2023-01-29T07:37:46.573Z,56.26
2023-01-29T07:38:48.401Z,46.81
2023-01-29T07:39:50.261Z,49.89
2023-01-29T07:40:52.056Z,52.02
2023-01-29T07:41:53.851Z,50.26
2023-01-29T07:42:55.656Z,50.15
2023-01-29T07:43:57.486Z,45.77
2023-01-29T07:44:59.363Z,44.34
2023-01-29T07:46:01.401Z,42.05
2023-01-29T07:47:03.171Z,44.82
2023-01-29T07:48:05.013Z,42.55
2023-01-29T07:49:06.768Z,39.28
2023-01-29T07:50:09.407Z,35.74
2023-01-29T07:51:11.254Z,43.29
2023-01-29T07:52:13.036Z,49.28
2023-01-29T07:53:14.896Z,44.57
2023-01-29T07:54:16.725Z,35.14
2023-01-29T07:55:18.606Z,33.80
2023-01-29T07:56:20.414Z,30.97
2023-01-29T07:57:22.212Z,29.83
2023-01-29T07:58:24.018Z,31.03
2023-01-29T07:59:25.813Z,34.75
2023-01-29T08:00:27.668Z,32.83
2023-01-29T08:01:30.093Z,33.85
2023-01-29T08:02:32.038Z,35.36
2023-01-29T08:03:33.855Z,35.61
2023-01-29T08:04:35.673Z,38.19
2023-01-29T08:05:37.518Z,35.50
2023-01-29T08:06:39.312Z,34.34
2023-01-29T08:07:41.111Z,44.53
2023-01-29T08:08:42.908Z,49.75
2023-01-29T08:09:44.730Z,48.12
2023-01-29T08:10:46.693Z,53.67
2023-01-29T08:11:49.064Z,48.52
2023-01-29T08:12:50.905Z,44.83
2023-01-29T08:13:52.717Z,39.66
2023-01-29T08:16:32.863Z,37.53
2023-01-29T08:17:34.654Z,40.29
2023-01-29T08:18:36.451Z,35.27
2023-01-29T08:19:38.257Z,35.87
2023-01-29T08:20:40.045Z,35.51
2023-01-29T08:21:41.872Z,36.44
2023-01-29T08:22:43.661Z,31.67
2023-01-29T08:23:45.472Z,31.83
2023-01-29T08:24:54.134Z,29.04
2023-01-29T08:25:50.988Z,31.96
2023-01-29T08:26:52.839Z,32.56
2023-01-29T08:27:54.654Z,30.41
2023-01-29T08:28:56.693Z,27.71
2023-01-29T08:29:58.860Z,30.45
2023-01-29T08:31:00.784Z,38.37
2023-01-29T08:32:02.626Z,32.73
2023-01-29T08:33:04.523Z,32.69
2023-01-29T08:34:06.301Z,31.09
2023-01-29T08:35:08.081Z,36.27
2023-01-29T08:36:11.427Z,36.27
2023-01-29T08:37:13.278Z,34.21
2023-01-29T08:38:15.121Z,30.75
2023-01-29T08:39:16.993Z,31.17
2023-01-29T08:40:19.006Z,31.34
2023-01-29T08:41:21.123Z,28.80
2023-01-29T08:42:22.934Z,34.84
2023-01-29T08:43:24.816Z,34.23
2023-01-29T08:44:26.590Z,29.25
2023-01-29T08:45:28.407Z,28.64
2023-01-29T08:46:30.266Z,28.93
2023-01-29T08:47:32.067Z,26.02
2023-01-29T08:48:33.854Z,27.57
2023-01-29T08:49:35.634Z,30.85
2023-01-29T08:50:37.509Z,35.00
2023-01-29T08:51:39.274Z,34.16
2023-01-29T08:52:41.247Z,32.81
2023-01-29T08:53:43.025Z,29.18
2023-01-29T08:54:44.919Z,37.45
2023-01-29T08:55:46.678Z,35.11
2023-01-29T08:56:48.603Z,31.79
2023-01-29T08:57:50.457Z,31.13
2023-01-29T08:58:52.321Z,35.83
2023-01-29T08:59:54.179Z,33.13
2023-01-29T09:00:56.101Z,34.47
2023-01-29T09:01:57.983Z,35.79
2023-01-29T09:02:59.920Z,31.98
2023-01-29T09:04:01.802Z,34.82
2023-01-29T09:05:03.639Z,33.63
2023-01-29T09:06:05.537Z,43.33
2023-01-29T09:07:07.330Z,32.22
2023-01-29T09:08:09.178Z,39.11
2023-01-29T09:09:11.042Z,42.58
2023-01-29T09:10:12.847Z,50.19
2023-01-29T09:11:14.671Z,46.73
2023-01-29T09:12:16.445Z,47.09
2023-01-29T09:13:18.366Z,35.58
2023-01-29T09:14:20.165Z,33.67
2023-01-29T09:15:22.007Z,39.39
2023-01-29T09:16:23.946Z,36.35
2023-01-29T09:17:25.840Z,34.06
2023-01-29T09:18:27.739Z,35.52
2023-01-29T09:19:29.562Z,32.25
2023-01-29T09:20:31.356Z,30.23
2023-01-29T09:21:33.532Z,34.61
2023-01-29T09:22:35.362Z,37.09
2023-01-29T09:23:37.232Z,38.47
2023-01-29T09:24:39.369Z,40.44
2023-01-29T09:25:41.404Z,46.61
2023-01-29T09:26:44.695Z,42.64
2023-01-29T09:27:46.585Z,36.26
2023-01-29T09:28:48.538Z,30.48
2023-01-29T09:29:50.286Z,24.46
2023-01-29T09:30:52.369Z,22.11
2023-01-29T09:31:54.471Z,27.33
2023-01-29T09:32:56.310Z,27.08
2023-01-29T09:33:58.164Z,27.11
2023-01-29T09:35:00.096Z,29.12
2023-01-29T09:36:01.884Z,26.70
2023-01-29T09:37:03.721Z,25.67
2023-01-29T09:38:05.544Z,21.01
2023-01-29T09:39:07.439Z,24.55
2023-01-29T09:40:09.642Z,28.28
2023-01-29T09:41:11.489Z,30.93
2023-01-29T09:42:13.312Z,27.11
2023-01-29T09:43:15.128Z,26.09
2023-01-29T09:44:16.967Z,28.65
2023-01-29T09:45:19.073Z,29.11
2023-01-29T09:46:21.271Z,23.89
2023-01-29T09:47:23.217Z,24.37
2023-01-29T09:48:25.100Z,22.18
2023-01-29T09:49:30.669Z,25.00
2023-01-29T09:50:32.597Z,19.56
2023-01-29T09:51:34.457Z,21.61
2023-01-29T09:52:36.351Z,18.88
2023-01-29T09:53:38.160Z,20.36
2023-01-29T09:54:40.050Z,23.59
2023-01-29T09:55:41.914Z,24.86
2023-01-29T09:56:44.087Z,20.80
2023-01-29T09:57:45.940Z,22.29
2023-01-29T09:58:47.750Z,22.50
2023-01-29T09:59:49.565Z,21.69
2023-01-29T10:00:51.694Z,20.56
2023-01-29T10:01:53.601Z,25.39
2023-01-29T10:02:55.429Z,21.03
2023-01-29T10:03:57.241Z,21.09
2023-01-29T10:04:59.090Z,24.84
2023-01-29T10:06:00.913Z,32.27
2023-01-29T10:07:02.714Z,33.19
2023-01-29T10:08:04.503Z,29.63
2023-01-29T10:09:06.324Z,31.17
2023-01-29T10:10:10.207Z,36.73
2023-01-29T10:11:12.045Z,25.56
2023-01-29T10:12:13.842Z,27.60
2023-01-29T10:13:15.644Z,27.62
2023-01-29T10:14:17.572Z,25.27
2023-01-29T10:15:21.729Z,27.10
2023-01-29T10:16:23.759Z,28.18
2023-01-29T10:17:25.526Z,27.66
2023-01-29T10:18:27.329Z,31.79
2023-01-29T10:19:29.165Z,34.72
2023-01-29T10:20:32.091Z,28.87
2023-01-29T10:21:34.058Z,26.41
2023-01-29T10:22:35.889Z,29.80
2023-01-29T10:23:37.664Z,22.84
2023-01-29T10:24:39.464Z,27.39
2023-01-29T10:25:41.343Z,25.88
2023-01-29T10:26:43.297Z,24.56
2023-01-29T10:27:45.210Z,26.74
2023-01-29T10:28:47.024Z,27.51
2023-01-29T10:29:48.798Z,27.71
2023-01-29T10:30:52.585Z,23.73
2023-01-29T10:31:54.485Z,24.72
2023-01-29T10:32:56.322Z,21.87
2023-01-29T10:34:02.940Z,21.13
2023-01-29T10:35:01.789Z,23.14
2023-01-29T10:36:03.666Z,22.60
2023-01-29T10:37:05.567Z,23.11
2023-01-29T10:38:07.366Z,21.85
2023-01-29T10:39:09.155Z,24.14
2023-01-29T10:40:12.294Z,29.13
2023-01-29T10:41:14.197Z,30.18
2023-01-29T10:42:16.009Z,24.24
2023-01-29T10:43:17.807Z,27.18
2023-01-29T10:44:19.839Z,23.17
2023-01-29T10:45:21.647Z,22.19
2023-01-29T10:46:23.592Z,25.80
2023-01-29T10:47:25.437Z,21.50
2023-01-29T10:48:27.214Z,23.40
2023-01-29T10:49:29.089Z,26.13
2023-01-29T10:50:31.195Z,25.37
2023-01-29T10:51:33.058Z,22.59
2023-01-29T10:52:34.897Z,22.61
2023-01-29T10:53:36.720Z,22.10
2023-01-29T10:54:38.530Z,21.89
2023-01-29T10:55:40.319Z,22.04
2023-01-29T10:56:42.291Z,21.64
2023-01-29T10:57:44.086Z,21.44
2023-01-29T10:58:46.863Z,23.09
2023-01-29T10:59:48.713Z,21.05
2023-01-29T11:00:50.503Z,24.67
2023-01-29T11:01:53.910Z,27.98
2023-01-29T11:02:55.872Z,32.67
2023-01-29T11:03:57.931Z,30.81
2023-01-29T11:04:59.751Z,25.13
2023-01-29T11:06:01.569Z,23.71
2023-01-29T11:07:03.427Z,19.26
2023-01-29T11:08:05.235Z,21.91
2023-01-29T11:09:07.664Z,22.55
2023-01-29T11:10:09.775Z,26.40
2023-01-29T11:11:11.595Z,32.52
2023-01-29T11:12:13.482Z,33.89
2023-01-29T11:13:15.863Z,29.48
2023-01-29T11:14:17.789Z,27.75
2023-01-29T11:15:19.771Z,33.05
2023-01-29T11:16:21.594Z,32.02
2023-01-29T11:17:23.556Z,33.16
2023-01-29T11:18:25.307Z,28.31
2023-01-29T11:19:27.111Z,29.13
2023-01-29T11:20:29.024Z,25.53
2023-01-29T11:21:30.890Z,27.86
2023-01-29T11:22:32.727Z,25.96
2023-01-29T11:23:34.582Z,27.57
2023-01-29T11:24:36.981Z,35.44
2023-01-29T11:25:38.794Z,35.76
2023-01-29T11:26:40.786Z,30.13
2023-01-29T11:27:42.673Z,29.06
2023-01-29T11:28:44.481Z,32.63
2023-01-29T11:29:46.310Z,29.27
2023-01-29T11:30:48.394Z,26.05
2023-01-29T11:31:50.325Z,26.77
2023-01-29T11:32:52.164Z,23.31
2023-01-29T11:33:53.947Z,23.48
2023-01-29T11:34:55.760Z,22.69
2023-01-29T11:35:57.595Z,25.99
2023-01-29T11:36:59.409Z,21.05
2023-01-29T11:38:02.748Z,22.36
2023-01-29T11:39:04.696Z,25.02
2023-01-29T11:40:06.709Z,25.54
2023-01-29T11:41:08.558Z,26.30
2023-01-29T11:42:10.384Z,19.53
2023-01-29T11:43:12.227Z,23.35
2023-01-29T11:44:14.648Z,20.26
2023-01-29T11:45:16.469Z,19.04
2023-01-29T11:46:18.358Z,22.40
2023-01-29T11:47:20.192Z,24.09
2023-01-29T11:48:22.031Z,23.07
2023-01-29T11:49:23.861Z,21.25
2023-01-29T11:50:26.105Z,25.28
2023-01-29T11:51:27.899Z,26.93
2023-01-29T11:52:29.703Z,24.15
2023-01-29T11:53:31.570Z,23.33
2023-01-29T11:54:33.413Z,21.65
2023-01-29T11:55:49.522Z,25.46
2023-01-29T11:56:39.194Z,30.84
2023-01-29T11:57:41.115Z,25.38
2023-01-29T11:58:42.971Z,21.94
2023-01-29T11:59:44.774Z,25.81
2023-01-29T12:00:46.714Z,27.05
2023-01-29T12:01:48.604Z,24.24
2023-01-29T12:02:50.421Z,22.14
2023-01-29T12:03:52.320Z,25.77
2023-01-29T12:04:54.192Z,20.21
2023-01-29T12:05:56.037Z,19.21
2023-01-29T12:06:57.802Z,19.39
2023-01-29T12:07:59.611Z,20.53
2023-01-29T12:09:01.473Z,17.87
2023-01-29T12:10:03.323Z,17.15
2023-01-29T12:11:05.131Z,18.96
2023-01-29T12:12:06.934Z,21.88
2023-01-29T12:13:08.729Z,20.20
2023-01-29T12:14:10.585Z,20.74
2023-01-29T12:15:12.433Z,20.35
2023-01-29T12:16:14.412Z,19.77
2023-01-29T12:17:16.263Z,20.43
2023-01-29T12:18:18.084Z,18.98
2023-01-29T12:19:20.036Z,21.40
2023-01-29T12:20:21.962Z,23.66
2023-01-29T12:21:23.779Z,20.66
2023-01-29T12:22:25.594Z,23.72
2023-01-29T12:23:27.443Z,19.69
2023-01-29T12:24:29.265Z,22.95
2023-01-29T12:25:31.094Z,22.41
2023-01-29T12:26:33.056Z,20.42
2023-01-29T12:27:35.938Z,20.81
2023-01-29T12:28:37.755Z,19.42
2023-01-29T12:29:39.640Z,19.47
2023-01-29T12:30:41.681Z,17.91
2023-01-29T12:31:43.651Z,22.31
2023-01-29T12:32:45.472Z,25.95
2023-01-29T12:33:47.291Z,27.05
2023-01-29T12:34:51.177Z,27.34
2023-01-29T12:35:53.011Z,28.80
2023-01-29T12:36:54.821Z,25.29
2023-01-29T12:37:56.646Z,23.88
2023-01-29T12:38:59.048Z,21.61
2023-01-29T12:40:00.904Z,23.14
2023-01-29T12:41:03.377Z,24.03
2023-01-29T12:42:05.206Z,21.43
2023-01-29T12:43:06.996Z,23.87
2023-01-29T12:44:08.814Z,28.80
2023-01-29T12:45:11.751Z,26.36
2023-01-29T12:46:14.476Z,30.22
2023-01-29T12:47:17.163Z,28.44
2023-01-29T12:48:19.160Z,31.88
2023-01-29T12:49:20.960Z,29.93
2023-01-29T12:50:22.924Z,33.28
2023-01-29T12:51:25.464Z,28.04
2023-01-29T12:52:27.621Z,32.13
2023-01-29T12:53:29.444Z,32.11
2023-01-29T12:54:31.234Z,34.33
2023-01-29T12:55:33.674Z,35.03
2023-01-29T12:56:35.649Z,32.57
2023-01-29T12:57:37.448Z,32.07
2023-01-29T12:58:39.241Z,30.86
2023-01-29T12:59:41.060Z,36.64
2023-01-29T13:00:43.419Z,29.34
2023-01-29T13:01:45.281Z,31.18
2023-01-29T13:02:47.168Z,28.71
2023-01-29T13:03:48.960Z,25.66
2023-01-29T13:04:50.781Z,25.05
2023-01-29T13:05:52.614Z,27.11
2023-01-29T13:06:54.525Z,36.49
2023-01-29T13:07:56.326Z,39.76
2023-01-29T13:08:58.227Z,32.27
2023-01-29T13:10:00.038Z,28.83
2023-01-29T13:11:01.898Z,27.66
2023-01-29T13:12:03.716Z,33.70
2023-01-29T13:13:05.514Z,36.93
2023-01-29T13:14:07.325Z,46.94
2023-01-29T13:15:09.134Z,47.53
2023-01-29T13:16:11.363Z,40.70
2023-01-29T13:17:13.214Z,32.91
2023-01-29T13:18:16.823Z,29.09
2023-01-29T13:19:18.683Z,30.65